createdAt,value
2022-12-18T00:02:11.173Z,-6.93
2022-12-18T00:04:37.569Z,-6.96
2022-12-18T00:07:04.013Z,-6.95
2022-12-18T00:09:39.178Z,-6.99
2022-12-18T00:14:42.758Z,-7.02
2022-12-18T00:17:09.145Z,-6.96
2022-12-18T00:19:35.553Z,-7.00
2022-12-18T00:22:01.902Z,-7.20
2022-12-18T00:24:28.240Z,-7.31
2022-12-18T00:26:54.571Z,-7.32
2022-12-18T00:29:20.966Z,-7.30
2022-12-18T00:31:47.351Z,-7.39
2022-12-18T00:34:14.213Z,-7.28
2022-12-18T00:36:41.212Z,-7.23
2022-12-18T00:39:07.619Z,-7.28
2022-12-18T00:41:52.430Z,-7.31
2022-12-18T00:44:19.603Z,-7.09
2022-12-18T00:46:46.789Z,-7.18
2022-12-18T00:49:13.312Z,-7.14
2022-12-18T00:51:39.933Z,-7.09
2022-12-18T00:54:06.372Z,-7.11
2022-12-18T00:56:32.869Z,-7.14
2022-12-18T00:58:59.259Z,-7.13
2022-12-18T01:01:25.725Z,-6.91
2022-12-18T01:03:52.167Z,-7.00
2022-12-18T01:06:18.565Z,-7.08
2022-12-18T01:08:45.203Z,-6.97
2022-12-18T01:11:16.979Z,-7.00
2022-12-18T01:13:43.838Z,-6.98
2022-12-18T01:16:13.522Z,-6.98
2022-12-18T01:18:40.146Z,-6.96
2022-12-18T01:21:11.650Z,-6.92
2022-12-18T01:23:38.986Z,-6.83
2022-12-18T01:26:11.034Z,-6.88
2022-12-18T01:28:37.890Z,-6.82
2022-12-18T01:31:12.016Z,-6.86
2022-12-18T01:33:38.743Z,-6.92
2022-12-18T01:36:05.788Z,-6.88
2022-12-18T01:38:32.177Z,-6.90
2022-12-18T01:40:59.831Z,-6.96
2022-12-18T01:43:48.002Z,-6.94
2022-12-18T01:46:15.251Z,-6.85
2022-12-18T01:48:43.297Z,-6.90
2022-12-18T01:51:12.017Z,-6.86
2022-12-18T01:53:41.381Z,-6.85
2022-12-18T01:56:09.164Z,-6.88
2022-12-18T01:59:00.783Z,-6.99
2022-12-18T02:01:27.811Z,-6.96
2022-12-18T02:03:54.314Z,-7.01
2022-12-18T02:06:37.406Z,-7.00
2022-12-18T02:09:35.968Z,-6.96
2022-12-18T02:12:17.774Z,-6.91
2022-12-18T02:15:06.492Z,-6.89
2022-12-18T02:17:40.748Z,-6.81
2022-12-18T02:20:17.393Z,-6.83
2022-12-18T02:22:43.653Z,-6.82
2022-12-18T02:25:28.792Z,-6.85
2022-12-18T02:28:00.493Z,-6.81
2022-12-18T02:30:29.964Z,-6.82
2022-12-18T02:32:58.462Z,-6.86
2022-12-18T02:35:28.569Z,-6.88
2022-12-18T02:37:56.152Z,-6.69
2022-12-18T02:40:25.215Z,-6.73
2022-12-18T02:42:51.562Z,-6.76
2022-12-18T02:45:18.278Z,-6.83
2022-12-18T02:47:48.818Z,-6.68
2022-12-18T02:50:27.919Z,-6.74
2022-12-18T02:53:11.061Z,-6.55
2022-12-18T02:56:12.912Z,-6.56
2022-12-18T02:59:13.597Z,-6.57
2022-12-18T03:01:51.798Z,-6.60
2022-12-18T03:04:46.470Z,-6.62
2022-12-18T03:07:36.307Z,-6.51
2022-12-18T03:10:03.512Z,-6.49
2022-12-18T03:12:38.722Z,-6.52
2022-12-18T03:15:20.416Z,-6.62
2022-12-18T03:17:53.400Z,-6.48
2022-12-18T03:20:22.293Z,-6.59
2022-12-18T03:22:55.369Z,-6.64
2022-12-18T03:25:22.722Z,-6.65
2022-12-18T03:27:54.769Z,-6.53
2022-12-18T03:30:21.678Z,-6.64
2022-12-18T03:33:00.375Z,-6.55
2022-12-18T03:35:31.870Z,-6.58
2022-12-18T03:37:58.422Z,-6.49
2022-12-18T03:40:36.093Z,-6.48
2022-12-18T03:43:13.656Z,-6.49
2022-12-18T03:45:47.337Z,-6.71
2022-12-18T03:48:27.230Z,-6.64
2022-12-18T03:51:15.997Z,-6.66
2022-12-18T03:53:52.549Z,-6.77
2022-12-18T03:56:21.454Z,-6.75
2022-12-18T03:58:50.696Z,-6.71
2022-12-18T04:01:18.673Z,-6.57
2022-12-18T04:03:49.134Z,-6.55
2022-12-18T04:06:17.488Z,-6.55
2022-12-18T04:08:45.100Z,-6.57
2022-12-18T04:11:11.589Z,-6.59
2022-12-18T04:13:39.585Z,-6.53
2022-12-18T04:16:06.924Z,-6.55
2022-12-18T04:18:33.499Z,-6.57
2022-12-18T04:20:59.904Z,-6.67
2022-12-18T04:23:26.325Z,-6.62
2022-12-18T04:25:52.702Z,-6.73
2022-12-18T04:28:19.053Z,-6.66
2022-12-18T04:30:50.947Z,-6.50
2022-12-18T04:33:17.344Z,-6.64
2022-12-18T04:35:44.370Z,-6.62
2022-12-18T04:38:10.920Z,-6.63
2022-12-18T04:40:38.860Z,-6.66
2022-12-18T04:43:06.022Z,-6.65
2022-12-18T04:45:33.403Z,-6.60
2022-12-18T04:48:01.198Z,-6.67
2022-12-18T04:50:28.292Z,-6.60
2022-12-18T04:52:54.752Z,-6.63
2022-12-18T04:55:21.619Z,-6.62
2022-12-18T04:57:47.997Z,-6.69
2022-12-18T05:00:15.261Z,-6.68
2022-12-18T05:02:41.692Z,-6.66
2022-12-18T05:05:08.934Z,-6.68
2022-12-18T05:07:35.319Z,-6.75
2022-12-18T05:10:01.684Z,-6.62
2022-12-18T05:12:28.140Z,-6.56
2022-12-18T05:14:54.491Z,-6.54
2022-12-18T05:17:20.912Z,-6.51
2022-12-18T05:19:47.291Z,-6.54
2022-12-18T05:22:13.691Z,-6.64
2022-12-18T05:24:40.035Z,-6.52
2022-12-18T05:27:06.382Z,-6.53
2022-12-18T05:29:32.744Z,-6.54
2022-12-18T05:31:59.093Z,-6.53
2022-12-18T05:34:25.463Z,-6.58
2022-12-18T05:36:51.796Z,-6.49
2022-12-18T05:39:18.289Z,-6.50
2022-12-18T05:41:44.634Z,-6.53
2022-12-18T05:44:11.001Z,-6.47
2022-12-18T05:46:37.417Z,-6.56
2022-12-18T05:49:03.832Z,-6.61
2022-12-18T05:51:30.196Z,-6.48
2022-12-18T05:53:56.583Z,-6.59
2022-12-18T05:56:23.964Z,-6.50
2022-12-18T05:58:55.156Z,-6.57
2022-12-18T06:01:27.214Z,-6.49
2022-12-18T06:03:53.876Z,-6.44
2022-12-18T06:06:23.684Z,-6.57
2022-12-18T06:08:50.969Z,-6.47
2022-12-18T06:11:19.876Z,-6.47
2022-12-18T06:13:47.336Z,-6.57
2022-12-18T06:16:13.785Z,-6.52
2022-12-18T06:18:40.226Z,-6.42
2022-12-18T06:21:06.627Z,-6.46
2022-12-18T06:23:33.244Z,-6.48
2022-12-18T06:25:59.705Z,-6.56
2022-12-18T06:28:26.188Z,-6.55
2022-12-18T06:30:52.550Z,-6.40
2022-12-18T06:33:18.978Z,-6.41
2022-12-18T06:35:45.322Z,-6.52
2022-12-18T06:38:11.725Z,-6.46
2022-12-18T06:40:39.889Z,-6.65
2022-12-18T06:43:07.106Z,-6.54
2022-12-18T06:45:33.724Z,-6.53
2022-12-18T06:48:00.233Z,-6.51
2022-12-18T06:50:26.732Z,-6.52
2022-12-18T06:52:53.122Z,-6.53
2022-12-18T06:55:19.461Z,-6.56
2022-12-18T06:57:45.885Z,-6.54
2022-12-18T07:00:12.529Z,-6.54
2022-12-18T07:02:39.094Z,-6.53
2022-12-18T07:05:10.437Z,-6.66
2022-12-18T07:07:37.623Z,-6.56
2022-12-18T07:10:04.363Z,-6.53
2022-12-18T07:12:30.736Z,-6.57
2022-12-18T07:14:57.091Z,-6.50
2022-12-18T07:17:23.478Z,-6.49
2022-12-18T07:19:49.850Z,-6.54
2022-12-18T07:22:16.192Z,-6.45
2022-12-18T07:24:42.576Z,-6.45
2022-12-18T07:27:08.927Z,-6.50
2022-12-18T07:29:36.635Z,-6.61
2022-12-18T07:32:03.086Z,-6.46
2022-12-18T07:34:29.541Z,-6.49
2022-12-18T07:36:55.896Z,-6.55
2022-12-18T07:39:22.314Z,-6.53
2022-12-18T07:42:08.643Z,-6.53
2022-12-18T07:44:35.117Z,-6.57
2022-12-18T07:47:01.594Z,-6.65
2022-12-18T07:49:28.735Z,-6.54
2022-12-18T07:51:57.008Z,-6.54
2022-12-18T07:54:24.375Z,-6.52
2022-12-18T07:56:51.586Z,-6.47
2022-12-18T07:59:18.387Z,-6.56
2022-12-18T08:01:44.994Z,-6.48
2022-12-18T08:04:13.351Z,-6.55
2022-12-18T08:06:41.700Z,-6.49
2022-12-18T08:09:11.396Z,-6.56
2022-12-18T08:11:37.766Z,-6.69
2022-12-18T08:14:04.209Z,-6.66
2022-12-18T08:16:31.305Z,-6.58
2022-12-18T08:18:57.745Z,-6.52
2022-12-18T08:21:29.417Z,-6.58
2022-12-18T08:23:57.864Z,-6.57
2022-12-18T08:26:25.519Z,-6.46
2022-12-18T08:28:52.443Z,-6.50
2022-12-18T08:31:19.959Z,-6.61
2022-12-18T08:33:50.427Z,-6.48
2022-12-18T08:36:17.427Z,-6.49
2022-12-18T08:38:43.815Z,-6.56
2022-12-18T08:41:13.613Z,-6.58
2022-12-18T08:43:58.417Z,-6.49
2022-12-18T08:46:26.438Z,-6.47
2022-12-18T08:48:54.255Z,-6.43
2022-12-18T08:51:21.155Z,-6.39
2022-12-18T08:53:47.715Z,-6.39
2022-12-18T08:56:15.345Z,-6.42
2022-12-18T08:58:42.636Z,-6.46
2022-12-18T09:01:11.970Z,-6.49
2022-12-18T09:03:39.433Z,-6.31
2022-12-18T09:06:06.999Z,-6.47
2022-12-18T09:08:37.541Z,-6.37
2022-12-18T09:11:04.497Z,-6.55
2022-12-18T09:13:31.121Z,-6.53
2022-12-18T09:15:57.484Z,-6.48
2022-12-18T09:18:24.672Z,-6.56
2022-12-18T09:20:54.021Z,-6.58
2022-12-18T09:23:21.670Z,-6.59
2022-12-18T09:25:48.550Z,-6.75
2022-12-18T09:28:17.179Z,-6.91
2022-12-18T09:30:46.934Z,-6.83
2022-12-18T09:33:13.676Z,-6.89
2022-12-18T09:35:42.247Z,-6.90
2022-12-18T09:38:12.303Z,-6.90
2022-12-18T09:40:53.728Z,-6.86
2022-12-18T09:43:38.046Z,-6.88
2022-12-18T09:46:08.827Z,-6.72
2022-12-18T09:48:45.299Z,-6.93
2022-12-18T09:51:19.282Z,-6.93
2022-12-18T09:53:56.103Z,-6.79
2022-12-18T09:56:24.044Z,-6.93
2022-12-18T09:58:58.246Z,-6.88
2022-12-18T10:01:25.255Z,-6.88
2022-12-18T10:03:53.195Z,-6.91
2022-12-18T10:06:24.618Z,-6.81
2022-12-18T10:09:16.152Z,-6.74
2022-12-18T10:11:48.283Z,-6.62
2022-12-18T10:14:29.816Z,-6.59
2022-12-18T10:17:23.891Z,-6.49
2022-12-18T10:19:53.001Z,-6.33
2022-12-18T10:22:40.277Z,-6.35
2022-12-18T10:25:27.763Z,-6.38
2022-12-18T10:28:08.400Z,-6.43
2022-12-18T10:30:34.766Z,-6.32
2022-12-18T10:33:02.572Z,-6.37
2022-12-18T10:35:29.122Z,-6.36
2022-12-18T10:38:21.619Z,-6.33
2022-12-18T10:40:50.718Z,-6.46
2022-12-18T10:43:25.427Z,-6.31
2022-12-18T10:46:10.018Z,-6.50
2022-12-18T10:48:48.331Z,-6.52
2022-12-18T10:51:22.952Z,-6.29
2022-12-18T10:53:56.453Z,-6.30
2022-12-18T10:56:24.716Z,-6.20
2022-12-18T10:58:59.532Z,-6.29
2022-12-18T11:01:26.601Z,-6.24
2022-12-18T11:04:00.453Z,-6.07
2022-12-18T11:06:28.480Z,-6.16
2022-12-18T11:09:01.945Z,-6.20
2022-12-18T11:11:29.694Z,-6.04
2022-12-18T11:14:06.458Z,-6.09
2022-12-18T11:17:03.110Z,-6.09
2022-12-18T11:19:37.724Z,-6.11
2022-12-18T11:22:27.411Z,-6.31
2022-12-18T11:25:30.023Z,-6.39
2022-12-18T11:27:50.568Z,-6.62
2022-12-18T11:30:32.527Z,-6.68
2022-12-18T11:33:19.830Z,-6.51
2022-12-18T11:35:56.844Z,-6.35
2022-12-18T11:38:29.888Z,-6.51
2022-12-18T11:41:04.539Z,-6.61
2022-12-18T11:43:42.162Z,-6.52
2022-12-18T11:46:19.412Z,-6.50
2022-12-18T11:49:02.891Z,-6.58
2022-12-18T11:51:38.250Z,-6.50
2022-12-18T11:54:14.648Z,-6.72
2022-12-18T11:56:52.408Z,-6.66
2022-12-18T11:59:45.955Z,-6.76
2022-12-18T12:02:26.601Z,-6.64
2022-12-18T12:05:14.172Z,-6.64
2022-12-18T12:07:56.859Z,-6.64
2022-12-18T12:10:33.254Z,-6.57
2022-12-18T12:13:44.232Z,-6.68
2022-12-18T12:16:22.645Z,-6.73
2022-12-18T12:19:26.311Z,-6.59
2022-12-18T12:22:04.907Z,-6.65
2022-12-18T12:24:40.497Z,-6.64
2022-12-18T12:27:34.584Z,-6.69
2022-12-18T12:30:16.379Z,-6.77
2022-12-18T12:33:01.088Z,-6.71
2022-12-18T12:35:47.629Z,-6.73
2022-12-18T12:38:21.406Z,-6.73
2022-12-18T12:41:02.874Z,-6.78
2022-12-18T12:43:48.070Z,-6.70
2022-12-18T12:46:20.644Z,-6.78
2022-12-18T12:48:53.500Z,-6.83
2022-12-18T12:51:23.778Z,-6.70
2022-12-18T12:53:51.200Z,-6.61
2022-12-18T12:56:20.183Z,-6.50
2022-12-18T12:59:02.928Z,-6.55
2022-12-18T13:01:54.244Z,-6.56
2022-12-18T13:04:36.754Z,-6.62
2022-12-18T13:07:14.926Z,-6.58
2022-12-18T13:10:26.873Z,-6.45
2022-12-18T13:12:58.098Z,-6.49
2022-12-18T13:15:36.791Z,-6.51
2022-12-18T13:18:11.508Z,-6.37
2022-12-18T13:21:16.623Z,-6.37
2022-12-18T13:23:43.618Z,-6.44
2022-12-18T13:26:23.371Z,-6.41
2022-12-18T13:28:55.531Z,-6.39
2022-12-18T13:31:40.156Z,-6.36
2022-12-18T13:34:26.889Z,-6.36
2022-12-18T13:36:56.640Z,-6.29
2022-12-18T13:39:34.800Z,-6.37
2022-12-18T13:42:08.458Z,-6.23
2022-12-18T13:44:44.350Z,-6.44
2022-12-18T13:47:27.137Z,-6.51
2022-12-18T13:49:53.814Z,-6.46
2022-12-18T13:52:23.806Z,-6.42
2022-12-18T13:54:54.205Z,-6.45
2022-12-18T13:57:39.173Z,-6.41
2022-12-18T14:00:29.385Z,-6.61
2022-12-18T14:02:58.026Z,-6.60
2022-12-18T14:05:30.890Z,-6.81
2022-12-18T14:08:06.584Z,-6.69
2022-12-18T14:10:45.607Z,-6.80
2022-12-18T14:13:30.155Z,-6.92
2022-12-18T14:15:57.768Z,-6.82
2022-12-18T14:18:34.591Z,-6.74
2022-12-18T14:21:03.589Z,-6.75
2022-12-18T14:23:33.476Z,-6.76
2022-12-18T14:26:05.830Z,-6.79
2022-12-18T14:28:32.993Z,-6.77
2022-12-18T14:30:59.399Z,-6.79
2022-12-18T14:33:28.219Z,-6.71
2022-12-18T14:36:06.323Z,-6.70
2022-12-18T14:38:40.785Z,-6.84
2022-12-18T14:41:12.681Z,-6.73
2022-12-18T14:43:42.672Z,-6.67
2022-12-18T14:46:29.422Z,-6.66
2022-12-18T14:48:56.362Z,-6.89
2022-12-18T14:51:25.683Z,-6.91
2022-12-18T14:53:59.341Z,-6.75
2022-12-18T14:56:28.787Z,-6.78
2022-12-18T14:59:07.015Z,-6.84
2022-12-18T15:01:47.816Z,-6.66
2022-12-18T15:04:36.017Z,-6.83
2022-12-18T15:07:11.628Z,-6.78
2022-12-18T15:09:39.420Z,-6.84
2022-12-18T15:12:06.248Z,-6.94
2022-12-18T15:14:39.753Z,-6.87
2022-12-18T15:17:17.304Z,-6.90
2022-12-18T15:19:45.288Z,-6.76
2022-12-18T15:22:34.629Z,-6.80
2022-12-18T15:25:01.685Z,-6.84
2022-12-18T15:27:36.814Z,-6.80
2022-12-18T15:30:06.014Z,-6.79
2022-12-18T15:32:32.385Z,-6.70
2022-12-18T15:35:24.688Z,-6.71
2022-12-18T15:37:53.193Z,-6.78
2022-12-18T15:40:24.788Z,-6.69
2022-12-18T15:43:27.395Z,-6.73
2022-12-18T15:45:53.833Z,-6.78
2022-12-18T15:48:24.288Z,-6.81
2022-12-18T15:50:57.658Z,-6.67
2022-12-18T15:53:25.546Z,-6.70
2022-12-18T15:56:10.323Z,-6.68
2022-12-18T15:58:36.879Z,-6.70
2022-12-18T16:01:03.835Z,-6.67
2022-12-18T16:03:30.399Z,-6.63
2022-12-18T16:05:56.865Z,-6.58
2022-12-18T16:08:24.738Z,-6.63
2022-12-18T16:10:51.087Z,-6.68
2022-12-18T16:13:20.666Z,-6.50
2022-12-18T16:15:47.110Z,-6.63
2022-12-18T16:18:13.490Z,-6.61
2022-12-18T16:20:40.222Z,-6.51
2022-12-18T16:23:06.587Z,-6.51
2022-12-18T16:25:33.382Z,-6.39
2022-12-18T16:27:59.854Z,-6.50
2022-12-18T16:30:32.764Z,-6.39
2022-12-18T16:33:05.657Z,-6.43
2022-12-18T16:35:33.961Z,-6.36
2022-12-18T16:38:00.459Z,-6.42
2022-12-18T16:40:26.913Z,-6.34
2022-12-18T16:42:53.276Z,-6.24
2022-12-18T16:45:19.721Z,-6.33
2022-12-18T16:47:46.213Z,-6.19
2022-12-18T16:50:13.065Z,-6.25
2022-12-18T16:52:39.815Z,-6.19
2022-12-18T16:55:06.706Z,-6.20
2022-12-18T16:57:33.095Z,-6.24
2022-12-18T17:00:04.706Z,-6.01
2022-12-18T17:02:32.383Z,-6.12
2022-12-18T17:04:59.004Z,-6.15
2022-12-18T17:07:26.462Z,-6.06
2022-12-18T17:09:54.027Z,-6.05
2022-12-18T17:12:20.812Z,-6.11
2022-12-18T17:14:47.166Z,-6.02
2022-12-18T17:17:22.770Z,-6.04
2022-12-18T17:19:50.261Z,-6.18
2022-12-18T17:22:16.611Z,-6.07
2022-12-18T17:24:43.035Z,-6.12
2022-12-18T17:27:09.435Z,-6.00
2022-12-18T17:29:36.058Z,-6.05
2022-12-18T17:32:02.492Z,-5.96
2022-12-18T17:34:30.077Z,-6.05
2022-12-18T17:36:57.253Z,-6.06
2022-12-18T17:39:23.706Z,-5.99
2022-12-18T17:41:50.565Z,-5.97
2022-12-18T17:44:17.938Z,-6.02
2022-12-18T17:46:44.454Z,-5.97
2022-12-18T17:49:11.708Z,-5.89
2022-12-18T17:51:38.159Z,-5.89
2022-12-18T17:54:05.349Z,-5.81
2022-12-18T17:56:32.748Z,-5.82
2022-12-18T17:58:59.560Z,-5.67
2022-12-18T18:01:26.382Z,-5.76
2022-12-18T18:03:54.159Z,-5.74
2022-12-18T18:06:21.075Z,-5.79
2022-12-18T18:08:47.665Z,-5.78
2022-12-18T18:11:35.537Z,-5.61
2022-12-18T18:14:05.090Z,-5.71
2022-12-18T18:16:34.324Z,-5.62
2022-12-18T18:19:03.556Z,-5.71
2022-12-18T18:21:30.881Z,-5.70
2022-12-18T18:24:02.363Z,-5.65
2022-12-18T18:26:31.730Z,-5.53
2022-12-18T18:29:00.555Z,-5.55
2022-12-18T18:31:30.537Z,-5.57
2022-12-18T18:33:57.803Z,-5.57
2022-12-18T18:36:24.690Z,-5.57
2022-12-18T18:38:51.826Z,-5.51
2022-12-18T18:41:19.162Z,-5.56
2022-12-18T18:43:46.015Z,-5.56
2022-12-18T18:46:16.647Z,-5.61
2022-12-18T18:48:43.800Z,-5.49
2022-12-18T18:51:20.795Z,-5.63
2022-12-18T18:53:50.330Z,-5.55
2022-12-18T18:56:56.679Z,-5.58
2022-12-18T18:59:05.772Z,-5.43
2022-12-18T19:01:32.898Z,-5.52
2022-12-18T19:04:04.160Z,-5.48
2022-12-18T19:06:30.709Z,-5.52
2022-12-18T19:08:58.468Z,-5.48
2022-12-18T19:11:44.479Z,-5.53
2022-12-18T19:14:13.307Z,-5.53
2022-12-18T19:16:40.209Z,-5.55
2022-12-18T19:19:07.660Z,-5.43
2022-12-18T19:21:34.915Z,-5.39
2022-12-18T19:24:02.343Z,-5.48
2022-12-18T19:26:29.157Z,-5.34
2022-12-18T19:29:02.017Z,-5.40
2022-12-18T19:31:34.845Z,-5.42
2022-12-18T19:34:02.102Z,-5.35
2022-12-18T19:36:30.056Z,-5.37
2022-12-18T19:38:59.373Z,-5.33
2022-12-18T19:41:29.211Z,-5.29
2022-12-18T19:43:58.349Z,-5.26
2022-12-18T19:46:24.845Z,-5.27
2022-12-18T19:48:51.369Z,-5.29
2022-12-18T19:51:23.638Z,-5.30
2022-12-18T19:53:55.115Z,-5.39
2022-12-18T19:56:26.782Z,-5.28
2022-12-18T19:58:54.285Z,-5.33
2022-12-18T20:01:23.195Z,-5.25
2022-12-18T20:03:51.840Z,-5.33
2022-12-18T20:06:26.977Z,-5.22
2022-12-18T20:08:56.807Z,-5.23
2022-12-18T20:11:28.254Z,-5.23
2022-12-18T20:13:54.686Z,-5.22
2022-12-18T20:16:21.126Z,-5.26
2022-12-18T20:18:48.189Z,-5.24
2022-12-18T20:21:14.772Z,-5.27
2022-12-18T20:23:41.816Z,-5.28
2022-12-18T20:26:08.807Z,-5.31
2022-12-18T20:28:35.741Z,-5.40
2022-12-18T20:31:04.785Z,-5.34
2022-12-18T20:33:31.410Z,-5.27
2022-12-18T20:36:06.150Z,-5.23
2022-12-18T20:38:34.414Z,-5.19
2022-12-18T20:41:02.344Z,-5.19
2022-12-18T20:43:29.961Z,-5.23
2022-12-18T20:46:07.947Z,-5.12
2022-12-18T20:48:34.673Z,-5.27
2022-12-18T20:51:10.507Z,-5.14
2022-12-18T20:53:37.672Z,-5.19
2022-12-18T20:56:12.097Z,-5.18
2022-12-18T20:58:38.840Z,-5.14
2022-12-18T21:01:12.397Z,-5.08
2022-12-18T21:03:40.861Z,-5.22
2022-12-18T21:06:08.537Z,-5.14
2022-12-18T21:08:34.988Z,-5.05
2022-12-18T21:11:38.326Z,-5.03
2022-12-18T21:14:07.000Z,-5.08
2022-12-18T21:16:33.519Z,-5.11
2022-12-18T21:18:59.942Z,-5.21
2022-12-18T21:21:27.189Z,-4.96
2022-12-18T21:23:54.089Z,-4.84
2022-12-18T21:26:25.615Z,-5.00
2022-12-18T21:28:59.567Z,-5.03
2022-12-18T21:31:29.237Z,-5.07
2022-12-18T21:34:01.829Z,-5.07
2022-12-18T21:36:29.905Z,-5.03
2022-12-18T21:38:57.438Z,-4.88
2022-12-18T21:41:43.815Z,-4.98
2022-12-18T21:44:12.355Z,-5.06
2022-12-18T21:46:41.202Z,-4.95
2022-12-18T21:49:08.590Z,-4.92
2022-12-18T21:51:36.191Z,-5.04
2022-12-18T21:54:03.833Z,-5.02
2022-12-18T21:56:50.579Z,-4.74
2022-12-18T21:59:19.877Z,-4.85
2022-12-18T22:01:46.968Z,-4.88
2022-12-18T22:04:14.045Z,-4.88
2022-12-18T22:06:42.560Z,-4.87
2022-12-18T22:09:10.832Z,-4.86
2022-12-18T22:11:37.350Z,-4.79
2022-12-18T22:14:04.080Z,-4.91
2022-12-18T22:16:30.747Z,-4.77
2022-12-18T22:18:57.102Z,-4.79
2022-12-18T22:21:31.602Z,-4.71
2022-12-18T22:24:02.776Z,-4.77
2022-12-18T22:26:33.891Z,-4.83
2022-12-18T22:29:23.900Z,-4.73
2022-12-18T22:31:50.318Z,-4.70
2022-12-18T22:34:21.905Z,-4.72
2022-12-18T22:36:49.456Z,-4.70
2022-12-18T22:39:18.919Z,-4.75
2022-12-18T22:41:45.869Z,-4.61
2022-12-18T22:44:12.456Z,-4.58
2022-12-18T22:46:47.230Z,-4.54
2022-12-18T22:49:20.299Z,-4.60
2022-12-18T22:51:47.058Z,-4.71
2022-12-18T22:54:13.500Z,-4.74
2022-12-18T22:56:40.468Z,-4.60
2022-12-18T22:59:09.170Z,-4.69
2022-12-18T23:01:36.748Z,-4.70
2022-12-18T23:04:05.260Z,-4.69
2022-12-18T23:06:31.612Z,-4.70
2022-12-18T23:08:58.122Z,-4.61
2022-12-18T23:11:26.557Z,-4.66
2022-12-18T23:13:56.566Z,-4.71
2022-12-18T23:16:25.255Z,-4.58
2022-12-18T23:18:56.384Z,-4.64
2022-12-18T23:21:23.893Z,-4.64
2022-12-18T23:23:50.879Z,-4.66
2022-12-18T23:26:24.783Z,-4.76
2022-12-18T23:28:52.438Z,-4.83
2022-12-18T23:31:38.721Z,-4.77
2022-12-18T23:34:06.331Z,-4.83
2022-12-18T23:36:43.535Z,-4.72
2022-12-18T23:39:28.426Z,-4.72
2022-12-18T23:41:57.523Z,-4.72
2022-12-18T23:44:23.911Z,-4.77
2022-12-18T23:46:50.468Z,-4.65
2022-12-18T23:49:16.933Z,-4.69
2022-12-18T23:51:43.524Z,-4.68
2022-12-18T23:54:10.334Z,-4.64
2022-12-18T23:56:36.729Z,-4.70
2022-12-18T23:59:03.232Z,-4.58
